TBA76 ZUBD-ZULS
Flight info
| Callsign | TBA76 |
|---|---|
| Flight time | 1h 16m |
| Altitude | 38100 |
| Route | IGDAG |
| Aircraft | A19N/M-VW/N |
Departure
| Time | 2026-04-24 21:09 |
|---|---|
| Airport | Qamdo Bangda Airport (ZUBD) |
Arrival
| Time | 2026-04-24 22:25 |
|---|---|
| Airport | Lhasa Gonggar International Airport (ZULS) |
| Time | Latitude | Longitude | Altitude | Speed | Heading |
|---|---|---|---|---|---|
| 2026-04-24 19:34 | 30.55188 | 97.10755 | 14234 ft | 0 kts | 231° |
| 2026-04-24 20:56 | 30.55188 | 97.10756 | 14234 ft | 1 kts | 231° |
| 2026-04-24 20:56 | 30.55198 | 97.10771 | 14234 ft | 3 kts | 238° |
| 2026-04-24 20:56 | 30.55207 | 97.10791 | 14234 ft | 3 kts | 258° |
| 2026-04-24 20:57 | 30.55208 | 97.10812 | 14234 ft | 3 kts | 304° |
| 2026-04-24 20:57 | 30.55201 | 97.10821 | 14234 ft | 1 kts | 321° |
| 2026-04-24 20:57 | 30.55200 | 97.10822 | 14234 ft | 0 kts | 321° |
| 2026-04-24 21:01 | 30.55215 | 97.10808 | 14234 ft | 5 kts | 320° |
| 2026-04-24 21:01 | 30.55244 | 97.10780 | 14234 ft | 6 kts | 319° |
| 2026-04-24 21:01 | 30.55273 | 97.10751 | 14234 ft | 5 kts | 324° |
| 2026-04-24 21:01 | 30.55306 | 97.10759 | 14234 ft | 6 kts | 44° |
| 2026-04-24 21:02 | 30.55340 | 97.10805 | 14234 ft | 8 kts | 51° |
| 2026-04-24 21:02 | 30.55378 | 97.10859 | 14234 ft | 9 kts | 50° |
| 2026-04-24 21:02 | 30.55416 | 97.10914 | 14234 ft | 9 kts | 50° |
| 2026-04-24 21:02 | 30.55465 | 97.10944 | 14234 ft | 9 kts | 345° |
| 2026-04-24 21:03 | 30.55523 | 97.10897 | 14234 ft | 11 kts | 321° |
| 2026-04-24 21:03 | 30.55592 | 97.10832 | 14234 ft | 14 kts | 321° |
| 2026-04-24 21:03 | 30.55671 | 97.10758 | 14234 ft | 15 kts | 321° |
| 2026-04-24 21:03 | 30.55755 | 97.10676 | 14234 ft | 16 kts | 320° |
| 2026-04-24 21:04 | 30.55846 | 97.10590 | 14234 ft | 17 kts | 320° |
| 2026-04-24 21:04 | 30.55943 | 97.10497 | 14234 ft | 19 kts | 320° |
| 2026-04-24 21:04 | 30.56049 | 97.10395 | 14234 ft | 21 kts | 320° |
| 2026-04-24 21:04 | 30.56163 | 97.10287 | 14234 ft | 22 kts | 321° |
| 2026-04-24 21:05 | 30.56285 | 97.10170 | 14234 ft | 23 kts | 320° |
| 2026-04-24 21:05 | 30.56411 | 97.10052 | 14234 ft | 23 kts | 320° |
| 2026-04-24 21:05 | 30.56525 | 97.09942 | 14234 ft | 21 kts | 320° |
| 2026-04-24 21:05 | 30.56637 | 97.09834 | 14234 ft | 21 kts | 320° |
| 2026-04-24 21:06 | 30.56750 | 97.09730 | 14234 ft | 21 kts | 322° |
| 2026-04-24 21:06 | 30.56858 | 97.09624 | 14234 ft | 20 kts | 321° |
| 2026-04-24 21:06 | 30.56966 | 97.09523 | 14234 ft | 20 kts | 321° |
| 2026-04-24 21:06 | 30.57052 | 97.09432 | 14234 ft | 15 kts | 286° |
| 2026-04-24 21:07 | 30.57101 | 97.09355 | 14234 ft | 11 kts | 24° |
| 2026-04-24 21:07 | 30.57093 | 97.09402 | 14234 ft | 0 kts | 140° |
| 2026-04-24 21:07 | 30.57092 | 97.09402 | 14234 ft | 0 kts | 140° |
| 2026-04-24 21:08 | 30.57071 | 97.09423 | 14234 ft | 21 kts | 140° |
| 2026-04-24 21:08 | 30.56790 | 97.09688 | 14234 ft | 80 kts | 140° |
| 2026-04-24 21:08 | 30.56217 | 97.10237 | 14234 ft | 132 kts | 141° |
| 2026-04-24 21:08 | 30.55370 | 97.11045 | 14234 ft | 179 kts | 141° |
| 2026-04-24 21:09 | 30.54343 | 97.12022 | 14502 ft | 193 kts | 141° |
| 2026-04-24 21:09 | 30.53307 | 97.13004 | 15023 ft | 193 kts | 141° |
| 2026-04-24 21:09 | 30.52262 | 97.13995 | 15459 ft | 194 kts | 141° |
| 2026-04-24 21:09 | 30.51201 | 97.14962 | 15816 ft | 199 kts | 145° |
| 2026-04-24 21:10 | 30.49957 | 97.15788 | 15905 ft | 214 kts | 156° |
| 2026-04-24 21:10 | 30.48541 | 97.16440 | 16083 ft | 225 kts | 156° |
| 2026-04-24 21:10 | 30.47028 | 97.17064 | 16297 ft | 237 kts | 163° |
| 2026-04-24 21:10 | 30.45412 | 97.17591 | 16577 ft | 246 kts | 164° |
| 2026-04-24 21:11 | 30.43819 | 97.18294 | 17050 ft | 245 kts | 154° |
| 2026-04-24 21:11 | 30.42410 | 97.19395 | 17521 ft | 246 kts | 139° |
| 2026-04-24 21:11 | 30.41238 | 97.20881 | 17791 ft | 257 kts | 130° |
| 2026-04-24 21:11 | 30.40017 | 97.22492 | 17877 ft | 276 kts | 135° |
| 2026-04-24 21:12 | 30.38412 | 97.23843 | 18013 ft | 289 kts | 159° |
| 2026-04-24 21:12 | 30.37159 | 97.24346 | 18420 ft | 289 kts | 163° |
| 2026-04-24 21:12 | 30.34590 | 97.25291 | 19158 ft | 292 kts | 163° |
| 2026-04-24 21:12 | 30.32653 | 97.26038 | 19676 ft | 295 kts | 162° |
| 2026-04-24 21:13 | 30.30714 | 97.26844 | 20173 ft | 298 kts | 159° |
| 2026-04-24 21:13 | 30.28861 | 97.27943 | 20617 ft | 305 kts | 149° |
| 2026-04-24 21:13 | 30.27131 | 97.29484 | 20709 ft | 324 kts | 137° |
| 2026-04-24 21:13 | 30.25658 | 97.31462 | 21150 ft | 328 kts | 126° |
| 2026-04-24 21:14 | 30.24518 | 97.33761 | 21607 ft | 332 kts | 114° |
| 2026-04-24 21:14 | 30.23782 | 97.36299 | 22043 ft | 336 kts | 102° |
| 2026-04-24 21:14 | 30.23491 | 97.38980 | 22455 ft | 339 kts | 90° |
| 2026-04-24 21:14 | 30.23666 | 97.41693 | 22856 ft | 341 kts | 78° |
| 2026-04-24 21:15 | 30.24323 | 97.44372 | 23257 ft | 343 kts | 66° |
| 2026-04-24 21:15 | 30.25424 | 97.46818 | 23646 ft | 344 kts | 54° |
| 2026-04-24 21:15 | 30.26928 | 97.48960 | 24038 ft | 344 kts | 42° |
| 2026-04-24 21:15 | 30.28772 | 97.50708 | 24429 ft | 344 kts | 30° |
| 2026-04-24 21:16 | 30.30842 | 97.52064 | 24867 ft | 343 kts | 22° |
| 2026-04-24 21:16 | 30.33036 | 97.53137 | 25301 ft | 342 kts | 17° |
| 2026-04-24 21:16 | 30.35310 | 97.53942 | 25736 ft | 342 kts | 11° |
| 2026-04-24 21:16 | 30.37643 | 97.54469 | 26119 ft | 342 kts | 5° |
| 2026-04-24 21:17 | 30.40003 | 97.54712 | 26506 ft | 342 kts | 359° |
| 2026-04-24 21:17 | 30.42387 | 97.54668 | 26888 ft | 342 kts | 353° |
| 2026-04-24 21:17 | 30.44745 | 97.54334 | 27257 ft | 342 kts | 347° |
| 2026-04-24 21:17 | 30.46317 | 97.53946 | 27500 ft | 342 kts | 343° |
| 2026-04-24 21:18 | 30.49307 | 97.52814 | 27960 ft | 343 kts | 336° |
| 2026-04-24 21:18 | 30.51499 | 97.51639 | 28319 ft | 343 kts | 332° |
| 2026-04-24 21:18 | 30.53631 | 97.50411 | 28675 ft | 344 kts | 332° |
| 2026-04-24 21:18 | 30.55776 | 97.49172 | 29007 ft | 345 kts | 332° |
| 2026-04-24 21:19 | 30.57916 | 97.47932 | 29325 ft | 346 kts | 332° |
| 2026-04-24 21:19 | 30.60070 | 97.46682 | 29645 ft | 347 kts | 332° |
| 2026-04-24 21:19 | 30.62228 | 97.45422 | 29951 ft | 348 kts | 332° |
| 2026-04-24 21:19 | 30.64360 | 97.44091 | 30240 ft | 349 kts | 328° |
| 2026-04-24 21:20 | 30.68394 | 97.40957 | 30849 ft | 350 kts | 321° |
| 2026-04-24 21:20 | 30.70263 | 97.39162 | 31155 ft | 350 kts | 317° |
| 2026-04-24 21:20 | 30.72027 | 97.37222 | 31457 ft | 350 kts | 314° |
| 2026-04-24 21:21 | 30.73680 | 97.35149 | 31758 ft | 350 kts | 310° |
| 2026-04-24 21:21 | 30.75213 | 97.32956 | 31988 ft | 352 kts | 307° |
| 2026-04-24 21:21 | 30.76640 | 97.30613 | 32065 ft | 359 kts | 303° |
| 2026-04-24 21:22 | 30.79150 | 97.25453 | 32217 ft | 372 kts | 297° |
| 2026-04-24 21:22 | 30.81505 | 97.19996 | 32369 ft | 384 kts | 297° |
| 2026-04-24 21:23 | 30.83922 | 97.14372 | 32520 ft | 395 kts | 297° |
| 2026-04-24 21:23 | 30.86390 | 97.08589 | 32718 ft | 404 kts | 297° |
| 2026-04-24 21:23 | 30.87642 | 97.05654 | 32902 ft | 406 kts | 297° |
| 2026-04-24 21:24 | 30.88897 | 97.02708 | 33131 ft | 407 kts | 297° |
| 2026-04-24 21:24 | 30.90154 | 96.99756 | 33390 ft | 407 kts | 297° |
| 2026-04-24 21:24 | 30.91410 | 96.96805 | 33667 ft | 407 kts | 297° |
| 2026-04-24 21:24 | 30.92660 | 96.93862 | 33955 ft | 406 kts | 297° |
| 2026-04-24 21:25 | 30.93926 | 96.90883 | 34253 ft | 405 kts | 297° |
| 2026-04-24 21:25 | 30.95168 | 96.87957 | 34542 ft | 403 kts | 297° |
| 2026-04-24 21:25 | 30.96410 | 96.85031 | 34823 ft | 402 kts | 296° |
| 2026-04-24 21:25 | 30.97644 | 96.82117 | 35094 ft | 401 kts | 296° |
| 2026-04-24 21:26 | 30.98809 | 96.79178 | 35357 ft | 400 kts | 291° |
| 2026-04-24 21:26 | 30.99615 | 96.76092 | 35631 ft | 399 kts | 283° |
| 2026-04-24 21:26 | 30.99985 | 96.72903 | 35913 ft | 399 kts | 275° |
| 2026-04-24 21:26 | 30.99934 | 96.69681 | 36186 ft | 398 kts | 269° |
| 2026-04-24 21:27 | 30.99751 | 96.66461 | 36388 ft | 398 kts | 269° |
| 2026-04-24 21:27 | 30.99569 | 96.63250 | 36585 ft | 397 kts | 269° |
| 2026-04-24 21:27 | 30.99388 | 96.60051 | 36780 ft | 397 kts | 269° |
| 2026-04-24 21:27 | 30.99265 | 96.57890 | 36908 ft | 396 kts | 269° |
| 2026-04-24 21:28 | 30.99020 | 96.53652 | 37151 ft | 395 kts | 269° |
| 2026-04-24 21:28 | 30.98895 | 96.51499 | 37278 ft | 395 kts | 269° |
| 2026-04-24 21:28 | 30.98709 | 96.48314 | 37462 ft | 394 kts | 269° |
| 2026-04-24 21:28 | 30.98476 | 96.45149 | 37652 ft | 393 kts | 266° |
| 2026-04-24 21:29 | 30.98092 | 96.42006 | 37925 ft | 391 kts | 263° |
| 2026-04-24 21:29 | 30.96908 | 96.35817 | 38029 ft | 392 kts | 260° |
| 2026-04-24 21:30 | 30.95616 | 96.29663 | 38035 ft | 391 kts | 260° |
| 2026-04-24 21:30 | 30.94318 | 96.23479 | 38034 ft | 391 kts | 260° |
| 2026-04-24 21:31 | 30.93027 | 96.17342 | 38032 ft | 391 kts | 260° |
| 2026-04-24 21:31 | 30.91733 | 96.11202 | 38031 ft | 391 kts | 260° |
| 2026-04-24 21:32 | 30.90436 | 96.05070 | 38036 ft | 391 kts | 260° |
| 2026-04-24 21:32 | 30.89137 | 95.98934 | 38049 ft | 392 kts | 259° |
| 2026-04-24 21:33 | 30.87846 | 95.92733 | 38049 ft | 398 kts | 258° |
| 2026-04-24 21:33 | 30.86499 | 95.86429 | 38047 ft | 400 kts | 258° |
| 2026-04-24 21:34 | 30.85152 | 95.80156 | 38045 ft | 400 kts | 257° |
| 2026-04-24 21:34 | 30.83805 | 95.73890 | 38044 ft | 400 kts | 257° |
| 2026-04-24 21:35 | 30.82483 | 95.67615 | 38042 ft | 400 kts | 258° |
| 2026-04-24 21:35 | 30.81176 | 95.61323 | 38040 ft | 401 kts | 258° |
| 2026-04-24 21:36 | 30.79871 | 95.55024 | 37977 ft | 401 kts | 258° |
| 2026-04-24 21:36 | 30.78570 | 95.48740 | 37968 ft | 401 kts | 258° |
| 2026-04-24 21:37 | 30.77256 | 95.42400 | 37967 ft | 401 kts | 258° |
| 2026-04-24 21:37 | 30.75951 | 95.36117 | 37967 ft | 400 kts | 258° |
| 2026-04-24 21:38 | 30.74648 | 95.29854 | 37967 ft | 399 kts | 258° |
| 2026-04-24 21:38 | 30.73341 | 95.23587 | 37966 ft | 400 kts | 258° |
| 2026-04-24 21:39 | 30.72030 | 95.17317 | 37965 ft | 400 kts | 258° |
| 2026-04-24 21:39 | 30.70717 | 95.11052 | 37965 ft | 399 kts | 258° |
| 2026-04-24 21:40 | 30.69402 | 95.04795 | 37964 ft | 399 kts | 258° |
| 2026-04-24 21:40 | 30.68075 | 94.98495 | 37954 ft | 399 kts | 257° |
| 2026-04-24 21:41 | 30.66754 | 94.92242 | 37946 ft | 399 kts | 257° |
| 2026-04-24 21:41 | 30.65429 | 94.85987 | 37945 ft | 399 kts | 257° |
| 2026-04-24 21:42 | 30.64103 | 94.79738 | 37944 ft | 399 kts | 257° |
| 2026-04-24 21:42 | 30.62772 | 94.73489 | 37943 ft | 399 kts | 257° |
| 2026-04-24 21:43 | 30.61441 | 94.67246 | 37943 ft | 399 kts | 257° |
| 2026-04-24 21:43 | 30.60096 | 94.60960 | 37942 ft | 399 kts | 257° |
| 2026-04-24 21:44 | 30.58756 | 94.54713 | 37942 ft | 399 kts | 257° |
| 2026-04-24 21:44 | 30.57416 | 94.48475 | 37941 ft | 399 kts | 257° |
| 2026-04-24 21:45 | 30.56070 | 94.42232 | 37941 ft | 399 kts | 257° |
| 2026-04-24 21:45 | 30.54723 | 94.36002 | 37940 ft | 398 kts | 257° |
| 2026-04-24 21:46 | 30.53378 | 94.29791 | 37940 ft | 398 kts | 257° |
| 2026-04-24 21:46 | 30.52018 | 94.23530 | 37940 ft | 398 kts | 257° |
| 2026-04-24 21:47 | 30.50664 | 94.17309 | 37939 ft | 398 kts | 257° |
| 2026-04-24 21:47 | 30.49329 | 94.11088 | 37939 ft | 398 kts | 257° |
| 2026-04-24 21:48 | 30.48017 | 94.04871 | 37945 ft | 398 kts | 257° |
| 2026-04-24 21:48 | 30.46710 | 93.98642 | 37945 ft | 398 kts | 257° |
| 2026-04-24 21:49 | 30.45413 | 93.92349 | 37914 ft | 406 kts | 256° |
| 2026-04-24 21:49 | 30.44074 | 93.85961 | 37910 ft | 412 kts | 256° |
| 2026-04-24 21:50 | 30.42709 | 93.79464 | 37909 ft | 412 kts | 256° |
| 2026-04-24 21:50 | 30.41489 | 93.73661 | 37919 ft | 412 kts | 256° |
| 2026-04-24 21:51 | 30.40132 | 93.67218 | 37925 ft | 412 kts | 256° |
| 2026-04-24 21:51 | 30.38776 | 93.60784 | 37925 ft | 411 kts | 255° |
| 2026-04-24 21:52 | 30.36974 | 93.54515 | 37925 ft | 411 kts | 250° |
| 2026-04-24 21:52 | 30.35016 | 93.48312 | 37925 ft | 411 kts | 250° |
| 2026-04-24 21:53 | 30.33060 | 93.42059 | 37924 ft | 411 kts | 250° |
| 2026-04-24 21:53 | 30.31128 | 93.35856 | 37725 ft | 412 kts | 250° |
| 2026-04-24 21:53 | 30.30160 | 93.32746 | 37474 ft | 411 kts | 250° |
| 2026-04-24 21:54 | 30.29196 | 93.29651 | 37016 ft | 408 kts | 250° |
| 2026-04-24 21:54 | 30.28238 | 93.26575 | 36415 ft | 405 kts | 250° |
| 2026-04-24 21:54 | 30.27289 | 93.23532 | 35838 ft | 401 kts | 250° |
| 2026-04-24 21:54 | 30.26347 | 93.20515 | 35257 ft | 398 kts | 251° |
| 2026-04-24 21:55 | 30.25414 | 93.17529 | 34684 ft | 394 kts | 251° |
| 2026-04-24 21:55 | 30.24486 | 93.14558 | 34126 ft | 393 kts | 251° |
| 2026-04-24 21:55 | 30.23556 | 93.11578 | 33659 ft | 396 kts | 251° |
| 2026-04-24 21:55 | 30.22620 | 93.08573 | 33250 ft | 399 kts | 251° |
| 2026-04-24 21:56 | 30.21680 | 93.05556 | 32817 ft | 401 kts | 251° |
| 2026-04-24 21:56 | 30.20720 | 93.02479 | 32341 ft | 402 kts | 251° |
| 2026-04-24 21:56 | 30.19769 | 92.99446 | 31848 ft | 403 kts | 251° |
| 2026-04-24 21:56 | 30.18805 | 92.96410 | 31335 ft | 402 kts | 251° |
| 2026-04-24 21:57 | 30.17850 | 92.93387 | 30774 ft | 400 kts | 251° |
| 2026-04-24 21:57 | 30.16905 | 92.90388 | 30176 ft | 396 kts | 251° |
| 2026-04-24 21:57 | 30.15973 | 92.87429 | 29586 ft | 391 kts | 251° |
| 2026-04-24 21:57 | 30.15052 | 92.84496 | 29005 ft | 386 kts | 251° |
| 2026-04-24 21:58 | 30.14143 | 92.81602 | 28429 ft | 382 kts | 251° |
| 2026-04-24 21:58 | 30.13242 | 92.78730 | 27868 ft | 379 kts | 251° |
| 2026-04-24 21:58 | 30.12350 | 92.75891 | 27316 ft | 375 kts | 250° |
| 2026-04-24 21:58 | 30.11465 | 92.73078 | 26774 ft | 371 kts | 250° |
| 2026-04-24 21:59 | 30.10590 | 92.70300 | 26355 ft | 365 kts | 250° |
| 2026-04-24 21:59 | 30.09719 | 92.67544 | 25904 ft | 366 kts | 250° |
| 2026-04-24 21:59 | 30.08849 | 92.64792 | 25374 ft | 364 kts | 250° |
| 2026-04-24 21:59 | 30.07978 | 92.62037 | 24829 ft | 359 kts | 250° |
| 2026-04-24 22:00 | 30.07125 | 92.59343 | 24323 ft | 357 kts | 249° |
| 2026-04-24 22:00 | 30.06258 | 92.56608 | 24153 ft | 370 kts | 249° |
| 2026-04-24 22:00 | 30.05378 | 92.53800 | 24067 ft | 374 kts | 250° |
| 2026-04-24 22:00 | 30.04497 | 92.50974 | 23980 ft | 375 kts | 250° |
| 2026-04-24 22:01 | 30.03618 | 92.48155 | 23895 ft | 374 kts | 250° |
| 2026-04-24 22:01 | 30.02740 | 92.45335 | 23807 ft | 373 kts | 250° |
| 2026-04-24 22:01 | 30.01865 | 92.42529 | 23720 ft | 373 kts | 250° |
| 2026-04-24 22:01 | 30.00987 | 92.39712 | 23632 ft | 373 kts | 249° |
| 2026-04-24 22:02 | 30.00110 | 92.36898 | 23550 ft | 374 kts | 249° |
| 2026-04-24 22:02 | 29.99231 | 92.34087 | 23464 ft | 373 kts | 250° |
| 2026-04-24 22:02 | 29.98351 | 92.31274 | 23378 ft | 373 kts | 250° |
| 2026-04-24 22:02 | 29.97473 | 92.28464 | 23291 ft | 374 kts | 250° |
| 2026-04-24 22:03 | 29.96582 | 92.25610 | 23204 ft | 372 kts | 250° |
| 2026-04-24 22:03 | 29.95706 | 92.22806 | 23118 ft | 373 kts | 250° |
| 2026-04-24 22:03 | 29.94828 | 92.20000 | 23032 ft | 371 kts | 250° |
| 2026-04-24 22:03 | 29.93948 | 92.17194 | 22948 ft | 374 kts | 250° |
| 2026-04-24 22:04 | 29.93069 | 92.14387 | 22861 ft | 369 kts | 250° |
| 2026-04-24 22:04 | 29.92194 | 92.11600 | 22777 ft | 373 kts | 250° |
| 2026-04-24 22:04 | 29.91324 | 92.08822 | 22692 ft | 366 kts | 249° |
| 2026-04-24 22:04 | 29.90452 | 92.06048 | 22608 ft | 371 kts | 249° |
| 2026-04-24 22:05 | 29.89579 | 92.03269 | 22522 ft | 367 kts | 249° |
| 2026-04-24 22:05 | 29.88709 | 92.00507 | 22438 ft | 368 kts | 249° |
| 2026-04-24 22:05 | 29.87837 | 91.97739 | 22354 ft | 367 kts | 249° |
| 2026-04-24 22:05 | 29.86968 | 91.94985 | 22269 ft | 367 kts | 249° |
| 2026-04-24 22:06 | 29.86084 | 91.92186 | 22185 ft | 368 kts | 249° |
| 2026-04-24 22:06 | 29.85210 | 91.89423 | 22101 ft | 370 kts | 249° |
| 2026-04-24 22:06 | 29.84340 | 91.86670 | 22015 ft | 365 kts | 249° |
| 2026-04-24 22:06 | 29.83470 | 91.83922 | 21931 ft | 366 kts | 249° |
| 2026-04-24 22:07 | 29.82599 | 91.81180 | 21847 ft | 365 kts | 249° |
| 2026-04-24 22:07 | 29.81733 | 91.78443 | 21770 ft | 364 kts | 249° |
| 2026-04-24 22:07 | 29.80873 | 91.75708 | 21745 ft | 364 kts | 249° |
| 2026-04-24 22:07 | 29.80013 | 91.72966 | 21738 ft | 365 kts | 249° |
| 2026-04-24 22:08 | 29.79155 | 91.70230 | 21736 ft | 364 kts | 249° |
| 2026-04-24 22:08 | 29.78295 | 91.67485 | 21735 ft | 364 kts | 249° |
| 2026-04-24 22:08 | 29.77439 | 91.64751 | 21736 ft | 364 kts | 249° |
| 2026-04-24 22:08 | 29.76581 | 91.62014 | 21737 ft | 364 kts | 249° |
| 2026-04-24 22:09 | 29.75722 | 91.59276 | 21736 ft | 364 kts | 249° |
| 2026-04-24 22:09 | 29.74853 | 91.56503 | 21736 ft | 364 kts | 249° |
| 2026-04-24 22:09 | 29.73994 | 91.53767 | 21730 ft | 364 kts | 249° |
| 2026-04-24 22:09 | 29.73136 | 91.51031 | 21726 ft | 364 kts | 249° |
| 2026-04-24 22:10 | 29.72274 | 91.48294 | 21724 ft | 364 kts | 249° |
| 2026-04-24 22:10 | 29.71416 | 91.45555 | 21725 ft | 365 kts | 249° |
| 2026-04-24 22:10 | 29.70565 | 91.42833 | 21719 ft | 352 kts | 249° |
| 2026-04-24 22:10 | 29.69775 | 91.40300 | 21721 ft | 322 kts | 249° |
| 2026-04-24 22:11 | 29.69037 | 91.37934 | 21735 ft | 314 kts | 249° |
| 2026-04-24 22:11 | 29.68300 | 91.35578 | 21737 ft | 312 kts | 249° |
| 2026-04-24 22:11 | 29.67569 | 91.33240 | 21734 ft | 312 kts | 250° |
| 2026-04-24 22:11 | 29.66900 | 91.30857 | 21449 ft | 314 kts | 253° |
| 2026-04-24 22:12 | 29.66366 | 91.28448 | 21193 ft | 309 kts | 256° |
| 2026-04-24 22:12 | 29.65956 | 91.26030 | 20961 ft | 310 kts | 259° |
| 2026-04-24 22:12 | 29.65667 | 91.23539 | 20711 ft | 311 kts | 263° |
| 2026-04-24 22:12 | 29.65517 | 91.21079 | 20464 ft | 309 kts | 266° |
| 2026-04-24 22:13 | 29.65504 | 91.18659 | 20254 ft | 297 kts | 269° |
| 2026-04-24 22:13 | 29.65596 | 91.16286 | 20037 ft | 298 kts | 270° |
| 2026-04-24 22:13 | 29.65543 | 91.13912 | 19653 ft | 295 kts | 263° |
| 2026-04-24 22:13 | 29.65248 | 91.11611 | 19434 ft | 290 kts | 256° |
| 2026-04-24 22:14 | 29.64711 | 91.09383 | 19216 ft | 290 kts | 249° |
| 2026-04-24 22:14 | 29.63926 | 91.07255 | 18980 ft | 289 kts | 242° |
| 2026-04-24 22:14 | 29.62907 | 91.05282 | 18751 ft | 287 kts | 234° |
| 2026-04-24 22:14 | 29.61674 | 91.03497 | 18550 ft | 283 kts | 226° |
| 2026-04-24 22:15 | 29.60299 | 91.01973 | 18386 ft | 267 kts | 219° |
| 2026-04-24 22:15 | 29.58843 | 91.00730 | 18276 ft | 259 kts | 212° |
| 2026-04-24 22:15 | 29.57304 | 90.99724 | 18122 ft | 250 kts | 206° |
| 2026-04-24 22:15 | 29.55718 | 90.98894 | 17906 ft | 244 kts | 204° |
| 2026-04-24 22:16 | 29.54199 | 90.98123 | 17725 ft | 236 kts | 203° |
| 2026-04-24 22:16 | 29.52727 | 90.97377 | 17551 ft | 226 kts | 203° |
| 2026-04-24 22:16 | 29.51308 | 90.96659 | 17403 ft | 222 kts | 203° |
| 2026-04-24 22:16 | 29.49902 | 90.95949 | 17230 ft | 221 kts | 203° |
| 2026-04-24 22:17 | 29.48518 | 90.95248 | 17035 ft | 214 kts | 203° |
| 2026-04-24 22:17 | 29.47189 | 90.94577 | 16912 ft | 201 kts | 203° |
| 2026-04-24 22:17 | 29.45906 | 90.93929 | 16768 ft | 205 kts | 203° |
| 2026-04-24 22:17 | 29.44592 | 90.93265 | 16604 ft | 206 kts | 203° |
| 2026-04-24 22:18 | 29.43304 | 90.92614 | 16462 ft | 198 kts | 203° |
| 2026-04-24 22:18 | 29.42047 | 90.91979 | 16307 ft | 198 kts | 203° |
| 2026-04-24 22:18 | 29.40833 | 90.91279 | 16175 ft | 194 kts | 210° |
| 2026-04-24 22:18 | 29.39751 | 90.90379 | 16128 ft | 193 kts | 220° |
| 2026-04-24 22:19 | 29.38841 | 90.89249 | 16121 ft | 186 kts | 231° |
| 2026-04-24 22:19 | 29.38181 | 90.87992 | 16113 ft | 184 kts | 242° |
| 2026-04-24 22:19 | 29.37753 | 90.86612 | 16113 ft | 186 kts | 253° |
| 2026-04-24 22:19 | 29.37511 | 90.85138 | 16003 ft | 192 kts | 257° |
| 2026-04-24 22:20 | 29.37283 | 90.83634 | 15694 ft | 191 kts | 258° |
| 2026-04-24 22:20 | 29.37139 | 90.82643 | 15554 ft | 189 kts | 258° |
| 2026-04-24 22:20 | 29.36847 | 90.80599 | 15233 ft | 198 kts | 259° |
| 2026-04-24 22:20 | 29.36639 | 90.79063 | 14854 ft | 190 kts | 260° |
| 2026-04-24 22:21 | 29.36284 | 90.77644 | 14662 ft | 185 kts | 244° |
| 2026-04-24 22:21 | 29.35548 | 90.76469 | 14517 ft | 182 kts | 224° |
| 2026-04-24 22:21 | 29.34494 | 90.75681 | 14353 ft | 183 kts | 202° |
| 2026-04-24 22:21 | 29.33265 | 90.75418 | 14169 ft | 179 kts | 180° |
| 2026-04-24 22:22 | 29.32051 | 90.75706 | 13935 ft | 182 kts | 159° |
| 2026-04-24 22:22 | 29.31038 | 90.76502 | 13557 ft | 173 kts | 136° |
| 2026-04-24 22:22 | 29.30422 | 90.77589 | 13412 ft | 159 kts | 115° |
| 2026-04-24 22:22 | 29.30184 | 90.78834 | 13385 ft | 161 kts | 97° |
| 2026-04-24 22:23 | 29.30145 | 90.79700 | 13377 ft | 162 kts | 94° |
| 2026-04-24 22:23 | 29.30111 | 90.80990 | 13355 ft | 164 kts | 93° |
| 2026-04-24 22:23 | 29.30049 | 90.82307 | 12984 ft | 164 kts | 95° |
| 2026-04-24 22:23 | 29.30018 | 90.83575 | 12649 ft | 155 kts | 91° |
| 2026-04-24 22:24 | 29.30044 | 90.84816 | 12344 ft | 156 kts | 89° |
| 2026-04-24 22:24 | 29.30076 | 90.86050 | 12135 ft | 155 kts | 90° |
| 2026-04-24 22:24 | 29.30094 | 90.87279 | 11952 ft | 154 kts | 91° |
| 2026-04-24 22:24 | 29.30110 | 90.88507 | 11782 ft | 150 kts | 90° |
| 2026-04-24 22:25 | 29.30129 | 90.89640 | 11727 ft | 126 kts | 92° |
| 2026-04-24 22:25 | 29.30138 | 90.90435 | 11726 ft | 76 kts | 87° |
| 2026-04-24 22:25 | 29.30145 | 90.90893 | 11726 ft | 42 kts | 88° |
| 2026-04-24 22:25 | 29.30150 | 90.91168 | 11726 ft | 33 kts | 89° |
| 2026-04-24 22:26 | 29.30154 | 90.91400 | 11726 ft | 21 kts | 88° |
| 2026-04-24 22:26 | 29.30125 | 90.91546 | 11726 ft | 18 kts | 115° |
| 2026-04-24 22:26 | 29.30081 | 90.91666 | 11726 ft | 16 kts | 113° |
| 2026-04-24 22:26 | 29.30047 | 90.91715 | 11726 ft | 7 kts | 159° |
| 2026-04-24 22:27 | 29.30004 | 90.91693 | 11726 ft | 8 kts | 249° |
| 2026-04-24 22:27 | 29.30000 | 90.91623 | 11726 ft | 9 kts | 269° |
| 2026-04-24 22:27 | 29.29999 | 90.91543 | 11726 ft | 11 kts | 269° |
| 2026-04-24 22:27 | 29.29998 | 90.91455 | 11726 ft | 11 kts | 269° |
| 2026-04-24 22:28 | 29.29997 | 90.91365 | 11726 ft | 11 kts | 269° |
| 2026-04-24 22:28 | 29.29996 | 90.91263 | 11726 ft | 15 kts | 269° |
| 2026-04-24 22:28 | 29.29992 | 90.91143 | 11726 ft | 15 kts | 268° |
| 2026-04-24 22:28 | 29.29989 | 90.91015 | 11726 ft | 17 kts | 268° |
| 2026-04-24 22:29 | 29.29986 | 90.90748 | 11726 ft | 18 kts | 269° |
| 2026-04-24 22:29 | 29.29983 | 90.90597 | 11726 ft | 20 kts | 268° |
| 2026-04-24 22:29 | 29.29981 | 90.90438 | 11726 ft | 20 kts | 270° |
| 2026-04-24 22:30 | 29.29980 | 90.90276 | 11726 ft | 21 kts | 269° |
| 2026-04-24 22:30 | 29.29975 | 90.90102 | 11726 ft | 22 kts | 269° |
| 2026-04-24 22:30 | 29.29975 | 90.89924 | 11726 ft | 22 kts | 270° |
| 2026-04-24 22:30 | 29.29970 | 90.89745 | 11726 ft | 22 kts | 268° |
| 2026-04-24 22:31 | 29.29968 | 90.89571 | 11726 ft | 22 kts | 270° |
| 2026-04-24 22:31 | 29.29968 | 90.89394 | 11726 ft | 22 kts | 269° |
| 2026-04-24 22:31 | 29.29967 | 90.89262 | 11726 ft | 11 kts | 270° |
| 2026-04-24 22:31 | 29.29931 | 90.89200 | 11726 ft | 11 kts | 189° |
| 2026-04-24 22:32 | 29.29855 | 90.89202 | 11726 ft | 11 kts | 178° |
| 2026-04-24 22:32 | 29.29776 | 90.89205 | 11726 ft | 12 kts | 178° |
| 2026-04-24 22:32 | 29.29691 | 90.89207 | 11726 ft | 12 kts | 179° |
| 2026-04-24 22:32 | 29.29604 | 90.89205 | 11726 ft | 13 kts | 181° |
| 2026-04-24 22:33 | 29.29518 | 90.89216 | 11726 ft | 13 kts | 127° |
| 2026-04-24 22:33 | 29.29515 | 90.89316 | 11726 ft | 13 kts | 88° |
| 2026-04-24 22:33 | 29.29499 | 90.89375 | 11726 ft | 7 kts | 172° |
| 2026-04-24 22:33 | 29.29449 | 90.89378 | 11726 ft | 7 kts | 179° |
| 2026-04-24 22:34 | 29.29403 | 90.89378 | 11726 ft | 5 kts | 179° |
| 2026-04-24 22:34 | 29.29391 | 90.89379 | 11726 ft | 0 kts | 179° |